createdAt,value
2018-10-16T00:00:08.388Z,68.63
2018-10-16T00:01:08.383Z,68.73
2018-10-16T00:02:08.373Z,68.36
2018-10-16T00:03:08.455Z,68.43
2018-10-16T00:04:08.341Z,68.73
2018-10-16T00:05:08.330Z,68.94
2018-10-16T00:06:08.322Z,68.63
2018-10-16T00:07:08.320Z,69.04
2018-10-16T00:08:08.327Z,68.63
2018-10-16T00:09:08.285Z,68.02
2018-10-16T00:10:08.279Z,68.23
2018-10-16T00:11:08.265Z,68.13
2018-10-16T00:12:08.251Z,67.82
2018-10-16T00:13:08.254Z,68.23
2018-10-16T00:14:08.234Z,68.23
2018-10-16T00:15:08.216Z,68.43
2018-10-16T00:16:08.206Z,68.23
2018-10-16T00:17:08.200Z,68.33
2018-10-16T00:18:08.198Z,68.33
2018-10-16T00:19:08.174Z,68.33
2018-10-16T00:20:08.162Z,68.23
2018-10-16T00:21:08.154Z,68.63
2018-10-16T00:22:08.137Z,68.43
2018-10-16T00:23:08.145Z,68.84
2018-10-16T00:24:08.116Z,68.73
2018-10-16T00:25:08.106Z,68.43
2018-10-16T00:26:08.102Z,68.43
2018-10-16T00:27:08.105Z,69.65
2018-10-16T00:28:08.082Z,68.77
2018-10-16T00:29:08.061Z,69.34
2018-10-16T00:30:08.058Z,68.73
2018-10-16T00:31:08.037Z,69.34
2018-10-16T00:32:08.045Z,69.54
2018-10-16T00:33:08.023Z,69.14
2018-10-16T00:34:08.013Z,69.57
2018-10-16T00:35:07.990Z,69.24
2018-10-16T00:36:07.982Z,69.68
2018-10-16T00:37:07.982Z,69.68
2018-10-16T00:38:07.957Z,70.08
2018-10-16T00:39:07.957Z,69.88
2018-10-16T00:40:07.935Z,70.08
2018-10-16T00:41:07.925Z,70.08
2018-10-16T00:42:07.916Z,70.08
2018-10-16T00:43:07.900Z,70.08
2018-10-16T00:44:07.904Z,70.18
2018-10-16T00:45:07.879Z,70.49
2018-10-16T00:46:07.872Z,70.29
2018-10-16T00:47:07.854Z,70.69
2018-10-16T00:48:07.847Z,70.69
2018-10-16T00:49:07.845Z,70.69
2018-10-16T00:50:07.824Z,71.30
2018-10-16T00:51:07.809Z,71.33
2018-10-16T00:52:07.798Z,71.33
2018-10-16T00:53:07.789Z,71.03
2018-10-16T00:54:07.785Z,71.33
2018-10-16T00:55:07.778Z,71.64
2018-10-16T00:56:07.752Z,71.84
2018-10-16T00:57:07.745Z,71.88
2018-10-16T00:58:07.729Z,72.28
2018-10-16T00:59:07.743Z,72.58
2018-10-16T01:00:07.712Z,72.48
2018-10-16T01:02:16.419Z,72.68
2018-10-16T01:03:16.406Z,72.92
2018-10-16T01:04:16.408Z,73.33
2018-10-16T01:05:16.384Z,73.43
2018-10-16T01:06:16.375Z,73.12
2018-10-16T01:07:16.370Z,73.43
2018-10-16T01:08:16.406Z,74.04
2018-10-16T01:09:16.354Z,73.93
2018-10-16T01:10:16.326Z,74.27
2018-10-16T01:11:16.318Z,74.04
2018-10-16T01:12:16.313Z,74.27
2018-10-16T01:13:16.324Z,74.27
2018-10-16T01:14:16.299Z,74.17
2018-10-16T01:15:16.272Z,74.98
2018-10-16T01:16:16.261Z,74.82
2018-10-16T01:17:16.249Z,74.92
2018-10-16T01:18:16.248Z,75.73
2018-10-16T01:19:16.250Z,75.22
2018-10-16T01:20:16.238Z,75.43
2018-10-16T01:21:16.207Z,75.83
2018-10-16T01:22:16.204Z,75.52
2018-10-16T01:23:16.196Z,76.07
2018-10-16T01:24:16.181Z,76.17
2018-10-16T01:25:16.163Z,76.28
2018-10-16T01:26:16.148Z,76.17
2018-10-16T01:27:16.136Z,75.87
2018-10-16T01:28:16.134Z,76.78
2018-10-16T01:29:16.149Z,76.48
2018-10-16T01:30:16.129Z,76.72
2018-10-16T01:31:16.109Z,76.82
2018-10-16T01:33:26.553Z,76.41
2018-10-16T01:34:25.322Z,76.41
2018-10-16T01:35:25.277Z,76.41
2018-10-16T01:36:25.271Z,76.41
2018-10-16T01:37:25.249Z,76.61
2018-10-16T01:38:25.244Z,76.51
2018-10-16T01:39:25.240Z,76.41
2018-10-16T01:40:25.217Z,76.51
2018-10-16T01:41:25.205Z,76.51
2018-10-16T01:42:25.194Z,76.31
2018-10-16T01:43:25.184Z,76.41
2018-10-16T01:44:25.185Z,76.48
2018-10-16T01:45:25.165Z,76.51
2018-10-16T01:46:25.149Z,76.82
2018-10-16T01:47:25.139Z,76.72
2018-10-16T01:48:25.126Z,76.82
2018-10-16T01:49:25.131Z,76.82
2018-10-16T01:50:25.105Z,76.92
2018-10-16T01:51:25.092Z,76.82
2018-10-16T01:52:25.087Z,77.22
2018-10-16T01:53:25.068Z,76.92
2018-10-16T01:54:25.083Z,76.82
2018-10-16T01:55:25.047Z,76.72
2018-10-16T01:56:25.037Z,76.61
2018-10-16T01:57:25.025Z,76.41
2018-10-16T01:58:25.011Z,76.28
2018-10-16T01:59:25.014Z,76.37
2018-10-16T02:00:25.001Z,76.58
2018-10-16T02:01:24.978Z,76.78
2018-10-16T02:02:24.971Z,76.75
2018-10-16T02:03:24.956Z,76.28
2018-10-16T02:04:24.948Z,76.07
2018-10-16T02:05:24.946Z,76.24
2018-10-16T02:06:24.924Z,76.24
2018-10-16T02:07:24.925Z,76.64
2018-10-16T02:08:24.901Z,76.78
2018-10-16T02:09:24.889Z,76.64
2018-10-16T02:10:24.897Z,76.68
2018-10-16T02:11:24.864Z,76.64
2018-10-16T02:12:24.857Z,76.68
2018-10-16T02:13:24.841Z,76.68
2018-10-16T02:14:24.829Z,76.64
2018-10-16T02:15:24.835Z,76.24
2018-10-16T02:16:24.808Z,76.24
2018-10-16T02:17:24.822Z,76.03
2018-10-16T02:18:24.791Z,75.52
2018-10-16T02:19:24.774Z,76.03
2018-10-16T02:20:24.790Z,76.03
2018-10-16T02:21:24.756Z,76.24
2018-10-16T02:22:24.740Z,75.93
2018-10-16T02:23:24.730Z,75.43
2018-10-16T02:24:24.722Z,75.52
2018-10-16T02:25:24.710Z,75.43
2018-10-16T02:26:24.714Z,75.93
2018-10-16T02:27:24.684Z,75.32
2018-10-16T02:28:24.685Z,75.90
2018-10-16T02:29:24.663Z,75.63
2018-10-16T02:30:24.651Z,75.32
2018-10-16T02:31:24.657Z,75.83
2018-10-16T02:32:24.629Z,75.32
2018-10-16T02:33:24.618Z,75.43
2018-10-16T02:34:24.608Z,76.03
2018-10-16T02:35:24.596Z,76.24
2018-10-16T02:36:24.604Z,75.83
2018-10-16T02:37:24.573Z,76.54
2018-10-16T02:38:24.561Z,76.03
2018-10-16T02:39:24.554Z,76.64
2018-10-16T02:40:24.539Z,76.34
2018-10-16T02:41:24.537Z,76.24
2018-10-16T02:44:42.938Z,76.98
2018-10-16T02:45:42.943Z,76.78
2018-10-16T02:46:42.919Z,77.09
2018-10-16T02:47:42.905Z,77.39
2018-10-16T02:48:42.894Z,77.22
2018-10-16T02:49:42.886Z,77.29
2018-10-16T02:50:42.888Z,77.12
2018-10-16T02:51:42.862Z,77.02
2018-10-16T02:52:42.849Z,77.22
2018-10-16T02:53:42.839Z,77.43
2018-10-16T02:54:42.829Z,77.53
2018-10-16T02:55:42.830Z,77.53
2018-10-16T02:56:42.807Z,77.87
2018-10-16T02:57:42.795Z,77.87
2018-10-16T02:58:42.780Z,77.87
2018-10-16T02:59:42.787Z,77.87
2018-10-16T03:00:42.773Z,78.58
2018-10-16T03:01:42.746Z,78.68
2018-10-16T03:02:42.741Z,78.78
2018-10-16T03:03:42.727Z,78.58
2018-10-16T03:04:42.713Z,78.68
2018-10-16T03:05:42.722Z,78.38
2018-10-16T03:06:42.698Z,78.38
2018-10-16T03:07:42.681Z,78.68
2018-10-16T03:08:42.670Z,78.28
2018-10-16T03:09:42.666Z,78.68
2018-10-16T03:10:42.668Z,78.38
2018-10-16T03:11:42.637Z,78.38
2018-10-16T03:12:42.640Z,78.38
2018-10-16T03:13:42.624Z,78.58
2018-10-16T03:14:42.601Z,78.38
2018-10-16T03:15:42.589Z,78.28
2018-10-16T03:16:42.607Z,78.38
2018-10-16T03:17:42.568Z,78.08
2018-10-16T03:18:42.555Z,77.87
2018-10-16T03:19:42.544Z,77.67
2018-10-16T03:20:42.565Z,77.67
2018-10-16T03:21:42.533Z,77.47
2018-10-16T03:22:42.512Z,77.16
2018-10-16T03:23:42.500Z,77.16
2018-10-16T03:24:42.492Z,77.36
2018-10-16T03:25:42.475Z,77.06
2018-10-16T03:26:42.476Z,77.22
2018-10-16T03:29:06.412Z,77.47
2018-10-16T03:29:51.161Z,77.67
2018-10-16T03:30:51.154Z,77.67
2018-10-16T03:31:51.152Z,77.47
2018-10-16T03:32:51.129Z,77.87
2018-10-16T03:33:51.123Z,77.87
2018-10-16T03:34:51.105Z,78.17
2018-10-16T03:35:51.093Z,78.38
2018-10-16T03:36:51.091Z,78.48
2018-10-16T03:37:51.072Z,78.21
2018-10-16T03:38:51.060Z,78.52
2018-10-16T03:39:51.054Z,79.13
2018-10-16T03:40:51.036Z,79.23
2018-10-16T03:41:51.036Z,78.92
2018-10-16T03:42:51.017Z,79.57
2018-10-16T03:43:51.004Z,79.47
2018-10-16T03:44:50.992Z,79.43
2018-10-16T03:45:51.057Z,79.33
2018-10-16T03:46:50.976Z,79.57
2018-10-16T03:47:50.959Z,79.98
2018-10-16T03:48:50.950Z,79.88
2018-10-16T03:49:50.932Z,80.18
2018-10-16T03:50:50.923Z,80.08
2018-10-16T03:51:50.925Z,79.98
2018-10-16T03:52:50.897Z,79.47
2018-10-16T03:53:50.893Z,80.08
2018-10-16T03:54:50.876Z,80.18
2018-10-16T03:55:50.873Z,80.29
2018-10-16T03:56:50.861Z,80.29
2018-10-16T03:57:50.844Z,80.49
2018-10-16T03:58:50.830Z,80.49
2018-10-16T03:59:50.823Z,80.90
2018-10-16T04:00:50.808Z,80.90
2018-10-16T04:01:50.806Z,80.69
2018-10-16T04:02:50.784Z,80.38
2018-10-16T04:03:50.776Z,80.49
2018-10-16T04:04:50.770Z,79.98
2018-10-16T04:05:50.757Z,79.57
2018-10-16T04:06:50.843Z,79.68
2018-10-16T04:07:50.732Z,80.45
2018-10-16T04:08:50.723Z,80.59
2018-10-16T04:09:50.708Z,80.69
2018-10-16T04:10:50.716Z,80.69
2018-10-16T04:11:50.697Z,80.69
2018-10-16T04:12:50.671Z,80.59
2018-10-16T04:13:50.685Z,80.59
2018-10-16T04:14:50.649Z,80.49
2018-10-16T04:15:50.645Z,80.55
2018-10-16T04:16:50.641Z,80.38
2018-10-16T04:17:50.617Z,80.18
2018-10-16T04:18:50.605Z,80.08
2018-10-16T04:19:50.600Z,79.94
2018-10-16T04:20:50.585Z,80.69
2018-10-16T04:21:50.584Z,80.59
2018-10-16T04:22:50.592Z,80.79
2018-10-16T04:23:50.557Z,80.49
2018-10-16T04:24:50.540Z,80.59
2018-10-16T04:25:50.528Z,79.88
2018-10-16T04:26:50.518Z,80.08
2018-10-16T04:27:50.517Z,80.18
2018-10-16T04:28:50.513Z,80.08
2018-10-16T04:29:50.483Z,80.38
2018-10-16T04:30:50.472Z,80.08
2018-10-16T04:31:50.465Z,80.59
2018-10-16T04:32:50.467Z,80.29
2018-10-16T04:33:50.443Z,80.52
2018-10-16T04:34:50.429Z,80.69
2018-10-16T04:35:50.417Z,80.59
2018-10-16T04:36:50.404Z,80.69
2018-10-16T04:37:50.405Z,80.59
2018-10-16T04:38:50.381Z,80.69
2018-10-16T04:39:50.374Z,80.69
2018-10-16T04:40:50.361Z,80.90
2018-10-16T04:41:50.348Z,81.13
2018-10-16T04:42:50.350Z,81.20
2018-10-16T04:43:50.435Z,81.44
2018-10-16T04:44:50.330Z,81.44
2018-10-16T04:45:50.314Z,81.65
2018-10-16T04:46:50.291Z,81.65
2018-10-16T04:47:50.288Z,81.34
2018-10-16T04:48:50.269Z,81.65
2018-10-16T04:49:50.274Z,81.34
2018-10-16T04:50:50.244Z,80.93
2018-10-16T04:51:50.235Z,81.38
2018-10-16T04:52:50.233Z,81.58
2018-10-16T04:53:50.211Z,81.88
2018-10-16T04:54:50.207Z,82.19
2018-10-16T04:55:50.192Z,82.19
2018-10-16T04:56:50.178Z,81.88
2018-10-16T04:57:50.181Z,81.58
2018-10-16T04:58:50.154Z,81.68
2018-10-16T04:59:50.145Z,82.19
2018-10-16T05:00:50.133Z,82.40
2018-10-16T05:01:50.127Z,81.88
2018-10-16T05:02:50.126Z,82.84
2018-10-16T05:03:50.099Z,82.84
2018-10-16T05:04:50.101Z,82.84
2018-10-16T05:05:50.077Z,82.64
2018-10-16T05:06:50.080Z,82.84
2018-10-16T05:07:50.066Z,82.84
2018-10-16T05:08:50.044Z,82.54
2018-10-16T05:09:50.037Z,82.54
2018-10-16T05:10:50.023Z,82.84
2018-10-16T05:11:50.010Z,82.64
2018-10-16T05:12:50.013Z,82.74
2018-10-16T05:13:49.989Z,82.98
2018-10-16T05:14:49.978Z,83.18
2018-10-16T05:15:49.991Z,83.29
2018-10-16T05:16:50.002Z,83.09
2018-10-16T05:17:49.955Z,82.88
2018-10-16T05:18:49.943Z,83.29
2018-10-16T05:19:49.922Z,83.49
2018-10-16T05:20:49.916Z,83.80
2018-10-16T05:21:49.900Z,83.49
2018-10-16T05:22:49.896Z,83.70
2018-10-16T05:23:49.883Z,83.70
2018-10-16T05:24:49.868Z,83.59
2018-10-16T05:25:49.862Z,83.63
2018-10-16T05:26:49.844Z,83.90
2018-10-16T05:27:49.843Z,83.90
2018-10-16T05:28:49.825Z,83.90
2018-10-16T05:29:49.812Z,84.11
2018-10-16T05:30:49.817Z,84.11
2018-10-16T05:31:49.788Z,83.39
2018-10-16T05:32:49.789Z,83.59
2018-10-16T05:33:49.771Z,83.59
2018-10-16T05:34:49.757Z,83.80
2018-10-16T05:35:49.751Z,83.70
2018-10-16T05:36:49.738Z,84.00
2018-10-16T05:37:49.737Z,83.80
2018-10-16T05:38:49.713Z,83.90
2018-10-16T05:39:49.707Z,84.20
2018-10-16T05:40:49.699Z,83.70
2018-10-16T05:41:49.682Z,84.00
2018-10-16T05:42:49.691Z,83.70
2018-10-16T05:43:49.662Z,83.29
2018-10-16T05:44:49.652Z,83.29
2018-10-16T05:45:49.646Z,83.39
2018-10-16T05:46:49.632Z,83.18
2018-10-16T05:47:49.627Z,82.64
2018-10-16T05:48:49.605Z,82.88
2018-10-16T05:49:49.592Z,82.74
2018-10-16T05:50:49.581Z,82.98
2018-10-16T05:51:49.572Z,82.74
2018-10-16T05:52:49.589Z,82.74
2018-10-16T05:53:49.557Z,83.04
2018-10-16T05:54:49.537Z,82.64
2018-10-16T05:55:49.529Z,83.49
2018-10-16T05:56:49.519Z,83.39
2018-10-16T05:57:49.503Z,83.29
2018-10-16T05:58:49.524Z,83.15
2018-10-16T05:59:49.485Z,83.18
2018-10-16T06:00:49.473Z,82.88
2018-10-16T06:01:49.469Z,82.94
2018-10-16T06:02:49.450Z,82.84
2018-10-16T06:03:49.453Z,82.88
2018-10-16T06:04:49.432Z,82.94
2018-10-16T06:05:49.467Z,82.94
2018-10-16T06:06:49.410Z,82.64
2018-10-16T06:07:49.396Z,82.84
2018-10-16T06:08:49.400Z,82.64
2018-10-16T06:09:49.377Z,82.74
2018-10-16T06:10:49.381Z,82.94
2018-10-16T06:11:49.360Z,83.01
2018-10-16T06:12:49.348Z,82.40
2018-10-16T06:13:49.355Z,81.99
2018-10-16T06:14:49.321Z,82.19
2018-10-16T06:15:49.312Z,82.09
2018-10-16T06:16:49.316Z,81.99
2018-10-16T06:17:49.299Z,81.99
2018-10-16T06:18:49.303Z,82.43
2018-10-16T06:19:49.267Z,82.27
2018-10-16T06:20:49.260Z,83.04
2018-10-16T06:21:49.245Z,83.15
2018-10-16T06:22:49.233Z,82.98
2018-10-16T06:23:49.235Z,82.54
2018-10-16T06:24:49.223Z,82.84
2018-10-16T06:25:49.219Z,82.57
2018-10-16T06:26:49.191Z,82.68
2018-10-16T06:27:49.235Z,82.88
2018-10-16T06:28:49.179Z,82.68
2018-10-16T06:29:49.157Z,83.18
2018-10-16T06:30:49.148Z,83.39
2018-10-16T06:31:49.136Z,83.59
2018-10-16T06:32:49.128Z,83.49
2018-10-16T06:33:49.132Z,82.94
2018-10-16T06:34:49.104Z,82.78
2018-10-16T06:35:49.092Z,82.74
2018-10-16T06:36:49.079Z,82.68
2018-10-16T06:37:49.073Z,82.78
2018-10-16T06:38:49.072Z,82.78
2018-10-16T06:39:49.095Z,83.49
2018-10-16T06:40:49.163Z,84.00
2018-10-16T06:41:49.031Z,83.49
2018-10-16T06:42:49.014Z,83.29
2018-10-16T06:43:49.073Z,83.35
2018-10-16T06:44:49.006Z,82.94
2018-10-16T06:45:48.996Z,82.74
2018-10-16T06:46:48.969Z,82.84
2018-10-16T06:47:49.045Z,82.74
2018-10-16T06:48:49.311Z,82.64
2018-10-16T06:49:48.938Z,82.74
2018-10-16T06:50:48.927Z,82.54
2018-10-16T06:51:48.919Z,82.64
2018-10-16T06:52:48.903Z,82.60
2018-10-16T06:53:48.904Z,82.90
2018-10-16T06:54:48.987Z,82.60
2018-10-16T06:55:48.872Z,82.43
2018-10-16T06:56:48.864Z,83.21
2018-10-16T06:57:48.863Z,82.90
2018-10-16T06:58:48.853Z,82.84
2018-10-16T06:59:48.837Z,82.40
2018-10-16T07:00:48.815Z,81.79
2018-10-16T07:01:48.807Z,81.79
2018-10-16T07:02:48.801Z,82.29
2018-10-16T07:03:48.792Z,81.88
2018-10-16T07:04:48.786Z,82.70
2018-10-16T07:05:48.764Z,82.05
2018-10-16T07:06:48.836Z,81.74
2018-10-16T07:07:48.751Z,81.24
2018-10-16T07:08:48.743Z,81.40
2018-10-16T07:09:48.732Z,82.01
2018-10-16T07:10:48.711Z,81.60
2018-10-16T07:11:48.698Z,81.30
2018-10-16T07:12:48.687Z,79.63
2018-10-16T07:13:48.688Z,79.68
2018-10-16T07:14:48.770Z,80.59
2018-10-16T07:18:06.347Z,81.54
2018-10-16T07:19:06.344Z,81.34
2018-10-16T07:20:06.348Z,81.10
2018-10-16T07:22:15.031Z,80.93
2018-10-16T07:23:15.068Z,80.90
2018-10-16T07:24:15.008Z,80.49
2018-10-16T07:25:15.007Z,79.68
2018-10-16T07:26:14.986Z,80.18
2018-10-16T07:27:14.979Z,79.98
2018-10-16T07:28:14.973Z,80.18
2018-10-16T07:29:14.953Z,79.57
2018-10-16T07:30:15.145Z,79.77
2018-10-16T07:31:14.932Z,79.37
2018-10-16T07:32:14.944Z,79.27
2018-10-16T07:33:14.916Z,79.37
2018-10-16T07:34:14.925Z,79.13
2018-10-16T07:35:14.921Z,78.92
2018-10-16T07:36:14.875Z,79.02
2018-10-16T07:37:14.875Z,78.62
2018-10-16T07:38:15.033Z,78.52
2018-10-16T07:39:14.853Z,78.62
2018-10-16T07:40:14.859Z,78.28
2018-10-16T07:41:14.823Z,78.31
2018-10-16T07:42:14.821Z,78.28
2018-10-16T07:43:14.801Z,78.58
2018-10-16T07:44:14.790Z,78.68
2018-10-16T07:45:14.795Z,77.56
2018-10-16T07:46:14.781Z,77.53
2018-10-16T07:47:14.760Z,77.22
2018-10-16T07:48:14.770Z,77.22
2018-10-16T07:49:14.735Z,76.82
2018-10-16T07:50:14.817Z,76.72
2018-10-16T07:52:38.682Z,76.37
2018-10-16T07:53:23.428Z,76.78
2018-10-16T07:54:23.415Z,75.93
2018-10-16T07:55:23.418Z,76.24
2018-10-16T07:56:23.388Z,76.14
2018-10-16T07:57:23.479Z,76.24
2018-10-16T07:58:23.370Z,76.03
2018-10-16T07:59:23.369Z,75.63
2018-10-16T08:00:23.372Z,75.32
2018-10-16T08:01:23.341Z,74.92
2018-10-16T08:02:23.321Z,75.09
2018-10-16T08:03:23.330Z,74.78
2018-10-16T08:04:23.306Z,74.88
2018-10-16T08:05:23.309Z,74.27
2018-10-16T08:06:23.274Z,74.27
2018-10-16T08:07:23.262Z,74.17
2018-10-16T08:08:23.255Z,74.48
2018-10-16T08:09:23.251Z,74.34
2018-10-16T08:10:23.243Z,74.14
2018-10-16T08:11:23.292Z,73.73
2018-10-16T08:12:23.210Z,73.43
2018-10-16T08:13:23.201Z,73.19
2018-10-16T08:14:23.203Z,72.65
2018-10-16T08:15:23.192Z,72.01
2018-10-16T08:16:23.184Z,69.78
2018-10-16T08:17:23.271Z,67.19
2018-10-16T08:18:23.140Z,65.48
2018-10-16T08:19:23.132Z,64.44
2018-10-16T08:20:23.130Z,64.04
2018-10-16T08:21:23.108Z,64.54
2018-10-16T08:22:23.097Z,64.78
2018-10-16T08:23:23.085Z,65.48
2018-10-16T08:24:23.073Z,65.18
2018-10-16T08:25:23.073Z,64.31
2018-10-16T08:26:23.050Z,62.97
2018-10-16T08:27:23.045Z,63.20
2018-10-16T08:28:23.035Z,63.03
2018-10-16T08:29:23.019Z,64.54
2018-10-16T08:30:23.037Z,64.67
2018-10-16T08:31:22.996Z,65.41
2018-10-16T08:32:22.992Z,66.05
2018-10-16T08:33:22.982Z,66.55
2018-10-16T08:34:22.970Z,66.58
2018-10-16T08:35:22.976Z,66.69
2018-10-16T08:36:23.072Z,66.78
2018-10-16T08:37:23.054Z,66.55
2018-10-16T08:38:22.928Z,66.55
2018-10-16T08:39:22.909Z,66.55
2018-10-16T08:40:22.896Z,66.35
2018-10-16T08:41:22.902Z,66.32
2018-10-16T08:42:22.874Z,66.22
2018-10-16T08:43:22.864Z,65.41
2018-10-16T08:44:22.856Z,65.71
2018-10-16T08:45:22.853Z,66.22
2018-10-16T08:46:22.849Z,66.82
2018-10-16T08:47:22.857Z,65.92
2018-10-16T08:48:22.808Z,64.75
2018-10-16T08:49:22.797Z,64.61
2018-10-16T08:50:22.799Z,63.90
2018-10-16T08:51:22.789Z,63.37
2018-10-16T08:52:22.767Z,63.90
2018-10-16T08:53:22.756Z,64.41
2018-10-16T08:54:22.742Z,65.05
2018-10-16T08:55:22.732Z,64.84
2018-10-16T08:56:22.738Z,65.15
2018-10-16T08:57:22.719Z,64.75
2018-10-16T08:58:22.705Z,64.75
2018-10-16T08:59:22.688Z,65.48
2018-10-16T09:00:22.684Z,66.08
2018-10-16T09:01:22.682Z,66.72
2018-10-16T09:02:22.655Z,66.39
2018-10-16T09:03:22.658Z,66.39
2018-10-16T09:04:22.637Z,64.72
2018-10-16T09:05:22.621Z,64.38
2018-10-16T09:06:22.623Z,63.67
2018-10-16T09:07:22.598Z,64.41
2018-10-16T09:08:22.592Z,65.35
2018-10-16T09:09:22.583Z,65.25
2018-10-16T09:10:22.567Z,65.65
2018-10-16T09:11:22.567Z,65.45
2018-10-16T09:12:22.542Z,66.05
2018-10-16T09:13:22.533Z,64.81
2018-10-16T09:14:22.560Z,64.18
2018-10-16T09:15:22.508Z,63.01
2018-10-16T09:16:22.510Z,63.51
2018-10-16T09:17:22.487Z,62.71
2018-10-16T09:18:22.478Z,63.14
2018-10-16T09:19:22.465Z,63.51
2018-10-16T09:20:22.460Z,62.71
2018-10-16T09:21:22.466Z,62.61
2018-10-16T09:22:22.433Z,62.81
2018-10-16T09:23:22.420Z,62.94
2018-10-16T09:24:22.435Z,63.14
2018-10-16T09:25:22.397Z,63.04
2018-10-16T09:26:22.396Z,62.94
2018-10-16T09:27:22.387Z,63.04
2018-10-16T09:28:22.363Z,62.74
2018-10-16T09:29:22.354Z,63.37
2018-10-16T09:30:22.365Z,63.47
2018-10-16T09:31:22.330Z,62.94
2018-10-16T09:32:22.332Z,62.44
2018-10-16T09:33:22.313Z,62.41
2018-10-16T09:34:22.297Z,61.80
2018-10-16T09:35:22.287Z,62.01
2018-10-16T09:36:22.279Z,62.41
2018-10-16T09:37:22.312Z,62.41
2018-10-16T09:38:22.257Z,62.18
2018-10-16T09:39:22.247Z,61.90
2018-10-16T09:40:22.231Z,61.77
2018-10-16T09:41:22.221Z,61.27
2018-10-16T09:42:22.222Z,61.37
2018-10-16T09:43:22.200Z,61.37
2018-10-16T09:44:22.189Z,61.27
2018-10-16T09:45:22.175Z,60.97
2018-10-16T09:46:22.174Z,61.67
2018-10-16T09:47:22.166Z,61.47
2018-10-16T09:48:22.147Z,61.37
2018-10-16T09:49:22.163Z,61.37
2018-10-16T09:50:22.121Z,61.37
2018-10-16T09:51:22.108Z,61.27
2018-10-16T09:52:22.109Z,60.97
2018-10-16T09:53:22.087Z,60.87
2018-10-16T09:54:22.076Z,61.37
2018-10-16T09:55:22.064Z,61.27
2018-10-16T09:56:22.052Z,61.17
2018-10-16T09:57:22.058Z,60.67
2018-10-16T09:58:22.037Z,60.67
2018-10-16T09:59:22.019Z,60.57
2018-10-16T10:00:22.013Z,61.30
2018-10-16T10:01:22.002Z,61.07
2018-10-16T10:02:22.006Z,60.97
2018-10-16T10:03:21.976Z,60.89
2018-10-16T10:04:21.963Z,60.77
2018-10-16T10:05:21.952Z,60.97
2018-10-16T10:06:21.946Z,61.17
2018-10-16T10:07:21.938Z,60.27
2018-10-16T10:08:21.931Z,59.76
2018-10-16T10:09:21.917Z,60.06
2018-10-16T10:10:21.915Z,60.27
2018-10-16T10:11:21.890Z,60.47
2018-10-16T10:12:21.879Z,60.36
2018-10-16T10:13:21.876Z,60.06
2018-10-16T10:14:21.864Z,59.96
2018-10-16T10:15:21.842Z,59.63
2018-10-16T10:16:21.838Z,60.33
2018-10-16T10:17:21.821Z,59.70
2018-10-16T10:18:21.819Z,59.50
2018-10-16T10:19:21.800Z,58.37
2018-10-16T10:20:21.792Z,58.97
2018-10-16T10:21:21.780Z,58.07
2018-10-16T10:22:21.767Z,57.84
2018-10-16T10:23:21.848Z,56.71
2018-10-16T10:24:21.747Z,57.18
2018-10-16T10:25:21.784Z,56.38
2018-10-16T10:26:21.726Z,56.26
2018-10-16T10:27:21.745Z,56.38
2018-10-16T10:28:21.708Z,56.38
2018-10-16T10:29:21.695Z,56.38
2018-10-16T10:30:21.676Z,56.38
2018-10-16T10:31:21.667Z,56.35
2018-10-16T10:32:21.653Z,56.26
2018-10-16T10:33:21.672Z,56.28
2018-10-16T10:34:21.630Z,56.88
2018-10-16T10:35:21.627Z,57.31
2018-10-16T10:36:21.608Z,56.71
2018-10-16T10:37:21.598Z,56.91
2018-10-16T10:38:21.599Z,56.81
2018-10-16T10:39:21.574Z,56.71
2018-10-16T10:40:21.564Z,56.61
2018-10-16T10:41:21.554Z,57.71
2018-10-16T10:42:21.619Z,56.81
2018-10-16T10:43:21.542Z,57.44
2018-10-16T10:44:21.521Z,57.11
2018-10-16T10:45:21.548Z,57.61
2018-10-16T10:46:21.502Z,56.74
2018-10-16T10:47:21.491Z,57.14
2018-10-16T10:48:21.487Z,56.74
2018-10-16T10:49:21.465Z,57.01
2018-10-16T10:50:21.669Z,57.01
2018-10-16T10:51:21.843Z,57.01
2018-10-16T10:52:21.432Z,56.81
2018-10-16T10:53:21.438Z,56.74
2018-10-16T10:54:21.415Z,57.24
2018-10-16T10:55:21.399Z,56.93
2018-10-16T10:56:21.386Z,56.86
2018-10-16T10:57:21.376Z,57.14
2018-10-16T10:58:21.374Z,57.04
2018-10-16T10:59:21.352Z,56.84
2018-10-16T11:00:21.340Z,56.84
2018-10-16T11:01:21.335Z,56.71
2018-10-16T11:02:21.353Z,56.61
2018-10-16T11:03:21.506Z,56.91
2018-10-16T11:04:21.303Z,56.61
2018-10-16T11:05:21.285Z,56.81
2018-10-16T11:06:21.275Z,56.91
2018-10-16T11:07:21.269Z,56.41
2018-10-16T11:08:22.572Z,56.21
2018-10-16T11:09:21.240Z,56.38
2018-10-16T11:10:21.230Z,56.28
2018-10-16T11:11:21.220Z,56.08
2018-10-16T11:12:21.212Z,56.38
2018-10-16T11:13:21.210Z,56.61
2018-10-16T11:14:21.191Z,55.98
2018-10-16T11:15:21.183Z,55.78
2018-10-16T11:16:21.164Z,55.88
2018-10-16T11:17:21.153Z,55.58
2018-10-16T11:18:21.161Z,55.88
2018-10-16T11:19:21.255Z,55.78
2018-10-16T11:20:21.121Z,55.85
2018-10-16T11:21:21.109Z,54.68
2018-10-16T11:22:21.094Z,55.18
2018-10-16T11:23:21.096Z,54.55
2018-10-16T11:24:21.074Z,54.65
2018-10-16T11:25:21.068Z,54.15
2018-10-16T11:26:21.052Z,53.64
2018-10-16T11:27:21.041Z,53.42
2018-10-16T11:28:21.041Z,53.52
2018-10-16T11:29:21.024Z,53.42
2018-10-16T11:30:21.080Z,53.82
2018-10-16T11:31:20.996Z,53.62
2018-10-16T11:32:20.985Z,53.62
2018-10-16T11:33:20.995Z,53.72
2018-10-16T11:34:20.963Z,53.82
2018-10-16T11:35:20.966Z,53.92
2018-10-16T11:36:20.949Z,53.52
2018-10-16T11:37:20.931Z,54.02
2018-10-16T11:38:20.935Z,54.02
2018-10-16T11:39:20.922Z,54.12
2018-10-16T11:40:20.895Z,54.22
2018-10-16T11:41:20.884Z,54.52
2018-10-16T11:42:20.887Z,54.12
2018-10-16T11:43:20.868Z,54.72
2018-10-16T11:44:20.878Z,54.12
2018-10-16T11:45:20.844Z,54.12
2018-10-16T11:46:20.830Z,54.43
2018-10-16T11:47:20.822Z,54.43
2018-10-16T11:48:20.813Z,54.02
2018-10-16T11:49:20.808Z,54.93
2018-10-16T11:50:20.835Z,54.70
2018-10-16T11:51:20.773Z,54.50
2018-10-16T11:52:20.836Z,54.30
2018-10-16T11:53:20.754Z,54.22
2018-10-16T11:54:20.757Z,53.89
2018-10-16T11:55:20.734Z,53.89
2018-10-16T11:56:20.718Z,54.22
2018-10-16T11:57:20.707Z,54.12
2018-10-16T11:58:20.707Z,54.12
2018-10-16T11:59:20.907Z,54.12
2018-10-16T12:00:20.674Z,54.93
2018-10-16T12:01:20.677Z,54.43
2018-10-16T12:02:20.693Z,54.20
2018-10-16T12:03:20.643Z,54.12
2018-10-16T12:04:20.648Z,53.30
2018-10-16T12:05:20.622Z,54.10
2018-10-16T12:06:20.610Z,53.59
2018-10-16T12:07:20.600Z,54.00
2018-10-16T12:08:20.586Z,53.97
2018-10-16T12:09:20.589Z,53.47
2018-10-16T12:10:20.572Z,52.74
2018-10-16T12:11:20.561Z,52.22
2018-10-16T12:12:20.542Z,51.59
2018-10-16T12:13:20.532Z,51.29
2018-10-16T12:14:20.534Z,50.87
2018-10-16T12:15:20.510Z,50.27
2018-10-16T12:16:20.500Z,50.59
2018-10-16T12:17:20.488Z,50.70
2018-10-16T12:18:20.478Z,50.49
2018-10-16T12:19:20.522Z,50.89
2018-10-16T12:20:20.453Z,51.50
2018-10-16T12:21:20.444Z,50.99
2018-10-16T12:22:20.436Z,50.89
2018-10-16T12:23:20.426Z,50.82
2018-10-16T12:24:20.423Z,50.49
2018-10-16T12:25:20.404Z,49.79
2018-10-16T12:26:20.385Z,49.09
2018-10-16T12:27:20.380Z,49.59
2018-10-16T12:28:20.364Z,49.19
2018-10-16T12:29:20.364Z,49.49
2018-10-16T12:30:20.342Z,49.17
2018-10-16T12:31:20.328Z,49.29
2018-10-16T12:32:20.350Z,49.57
2018-10-16T12:33:20.312Z,49.90
2018-10-16T12:34:20.322Z,49.15
2018-10-16T12:35:20.344Z,47.75
2018-10-16T12:36:20.276Z,45.28
2018-10-16T12:37:20.263Z,43.02
2018-10-16T12:38:20.313Z,42.17
2018-10-16T12:39:20.247Z,40.44
2018-10-16T12:40:20.347Z,40.03
2018-10-16T12:41:20.233Z,39.40
2018-10-16T12:42:20.237Z,39.91
2018-10-16T12:43:20.332Z,39.71
2018-10-16T12:44:20.183Z,39.29
2018-10-16T12:45:20.191Z,39.22
2018-10-16T12:46:20.168Z,39.95
2018-10-16T12:47:20.151Z,41.06
2018-10-16T12:48:20.142Z,42.17
2018-10-16T12:49:20.132Z,42.01
2018-10-16T12:50:20.180Z,43.23
2018-10-16T12:51:20.106Z,43.37
2018-10-16T12:52:20.097Z,43.66
2018-10-16T12:53:20.109Z,43.38
2018-10-16T12:54:20.074Z,44.01
2018-10-16T12:55:20.074Z,44.80
2018-10-16T12:56:20.059Z,45.12
2018-10-16T12:57:20.110Z,46.04
2018-10-16T12:58:20.033Z,45.14
2018-10-16T12:59:20.019Z,46.14
2018-10-16T13:00:20.030Z,46.06
2018-10-16T13:01:19.999Z,46.36
2018-10-16T13:02:19.988Z,46.16